Time;durP1;ratioP1;P1;durP2;ratioP2;P2;SDS_P1;SDS_P2;PMS_P1;PMS_P2;Temp;Humidity;BMP_temperature;BMP_pressure;BME280_temperature;BME280_humidity;BME280_pressure;Samples;Min_cycle;Max_cycle;Signal;HPM_P1;HPM_P2
2023/03/08 00:02:20;;;;;;;6.07;2.40;;;1.40;99.90;;;;;;4805633;29;20560;-76
2023/03/08 00:04:47;;;;;;;4.70;2.60;;;1.30;99.90;;;;;;4778446;29;20674;-73
2023/03/08 00:07:14;;;;;;;5.13;2.90;;;1.30;99.90;;;;;;4795663;29;20620;-76
2023/03/08 00:09:41;;;;;;;4.63;2.80;;;1.40;99.90;;;;;;4775783;30;20207;-77
2023/03/08 00:12:09;;;;;;;5.53;2.80;;;1.20;99.90;;;;;;4786187;30;20219;-76
2023/03/08 00:14:36;;;;;;;8.83;3.50;;;1.30;99.90;;;;;;4791089;29;20192;-73
2023/03/08 00:17:03;;;;;;;7.70;4.00;;;1.40;99.90;;;;;;4798099;29;20295;-76
2023/03/08 00:19:31;;;;;;;7.77;4.00;;;1.40;99.90;;;;;;4770407;29;20326;-76
2023/03/08 00:21:57;;;;;;;7.23;3.80;;;1.30;99.90;;;;;;4805794;29;20238;-77
2023/03/08 00:24:24;;;;;;;8.83;4.40;;;1.20;99.90;;;;;;4781880;29;20302;-77
2023/03/08 00:26:51;;;;;;;8.60;3.73;;;1.30;99.90;;;;;;4800192;29;20235;-76
2023/03/08 00:29:18;;;;;;;6.27;3.83;;;1.10;99.90;;;;;;4789147;29;20214;-77
2023/03/08 00:31:46;;;;;;;6.13;3.60;;;1.10;99.90;;;;;;4805531;29;20195;-78
2023/03/08 00:34:15;;;;;;;7.10;3.90;;;1.20;99.90;;;;;;4788873;29;20296;-77
2023/03/08 00:36:42;;;;;;;6.70;3.83;;;1.20;99.90;;;;;;4789509;29;20205;-76
2023/03/08 00:39:10;;;;;;;6.80;4.30;;;1.10;99.90;;;;;;4790458;29;20657;-77
2023/03/08 00:41:37;;;;;;;6.77;4.17;;;1.10;99.90;;;;;;4795070;29;20283;-77
2023/03/08 00:44:04;;;;;;;6.20;4.00;;;1.00;99.90;;;;;;4771562;30;20208;-76
2023/03/08 00:46:31;;;;;;;6.03;4.10;;;1.00;99.90;;;;;;4787316;30;20230;-77
2023/03/08 00:48:58;;;;;;;7.10;4.10;;;1.00;99.90;;;;;;4787204;30;20250;-76
2023/03/08 00:51:25;;;;;;;6.90;4.23;;;1.00;99.90;;;;;;4771200;30;20204;-76
2023/03/08 00:53:52;;;;;;;7.00;3.90;;;1.00;99.90;;;;;;4771133;30;20200;-76
2023/03/08 00:56:19;;;;;;;5.70;3.40;;;0.90;99.90;;;;;;4770457;30;20236;-76
2023/03/08 00:58:46;;;;;;;6.10;3.33;;;0.90;99.90;;;;;;4771854;29;20288;-76
2023/03/08 01:01:15;;;;;;;7.53;4.00;;;0.80;99.90;;;;;;4770762;30;20231;-76
2023/03/08 01:03:43;;;;;;;5.57;3.97;;;0.80;99.90;;;;;;4770449;30;20647;-75
2023/03/08 01:06:13;;;;;;;6.63;3.67;;;0.80;99.90;;;;;;4787149;30;20215;-75
2023/03/08 01:08:40;;;;;;;6.37;3.80;;;0.80;99.90;;;;;;4786954;30;20206;-76
2023/03/08 01:11:19;;;;;;;7.50;3.80;;;0.80;99.90;;;;;;4770991;30;20205;-76
2023/03/08 01:13:47;;;;;;;8.27;4.17;;;0.70;99.90;;;;;;4786906;30;20204;-76
2023/03/08 01:16:29;;;;;;;8.07;4.20;;;0.70;99.90;;;;;;4786742;30;20211;-76
2023/03/08 01:18:57;;;;;;;8.80;4.47;;;0.70;99.90;;;;;;4770832;30;20305;-76
2023/03/08 01:21:24;;;;;;;9.10;4.77;;;0.60;99.90;;;;;;4788376;29;20236;-76
2023/03/08 01:23:51;;;;;;;8.27;4.63;;;0.70;99.90;;;;;;4789512;30;20206;-76
2023/03/08 01:26:21;;;;;;;9.33;5.50;;;0.70;99.90;;;;;;4779103;29;20237;-75
2023/03/08 01:28:49;;;;;;;10.07;5.00;;;0.70;99.90;;;;;;4791792;29;20203;-76
2023/03/08 01:31:19;;;;;;;8.20;4.53;;;0.70;99.90;;;;;;4800339;29;20685;-75
2023/03/08 01:33:46;;;;;;;8.47;4.60;;;0.70;99.90;;;;;;4807870;29;20210;-75
2023/03/08 01:36:16;;;;;;;5.43;3.53;;;0.70;99.90;;;;;;4808478;29;20209;-75
2023/03/08 01:38:43;;;;;;;5.93;3.70;;;0.60;99.90;;;;;;4791870;29;20250;-74
2023/03/08 01:41:18;;;;;;;5.73;3.53;;;0.50;99.90;;;;;;4784266;30;20243;-75
2023/03/08 01:43:46;;;;;;;4.87;3.20;;;0.50;99.90;;;;;;4773697;30;20211;-75
2023/03/08 01:46:22;;;;;;;6.07;3.10;;;0.50;99.90;;;;;;4773553;30;20216;-75
2023/03/08 01:49:01;;;;;;;4.70;2.90;;;0.40;99.90;;;;;;4773678;30;20202;-75
2023/03/08 01:51:39;;;;;;;7.13;3.13;;;0.50;99.90;;;;;;4773682;30;20225;-76
2023/03/08 01:54:11;;;;;;;5.93;2.70;;;0.40;99.90;;;;;;4789489;30;20225;-75
2023/03/08 01:56:40;;;;;;;5.50;2.80;;;0.30;99.90;;;;;;4773562;30;20266;-75
2023/03/08 01:59:08;;;;;;;4.67;2.80;;;0.40;99.90;;;;;;4773455;30;20207;-75
2023/03/08 02:01:35;;;;;;;5.17;2.90;;;0.40;99.90;;;;;;4789778;30;20579;-76
2023/03/08 02:04:02;;;;;;;6.07;2.90;;;0.30;99.90;;;;;;4773228;30;20212;-74
2023/03/08 02:06:29;;;;;;;6.80;2.83;;;0.30;99.90;;;;;;4784995;29;20572;-76
2023/03/08 02:08:57;;;;;;;5.00;2.73;;;0.30;99.90;;;;;;4807536;29;20295;-75
2023/03/08 02:11:24;;;;;;;5.70;3.20;;;0.30;99.90;;;;;;4807406;29;20199;-76
2023/03/08 02:13:53;;;;;;;6.30;3.07;;;0.30;99.90;;;;;;4807614;29;20563;-77
2023/03/08 02:16:21;;;;;;;8.17;3.20;;;0.30;99.90;;;;;;4791161;29;20197;-77
2023/03/08 02:19:03;;;;;;;6.90;3.20;;;0.30;99.90;;;;;;4791104;29;20215;-77
2023/03/08 02:21:31;;;;;;;5.27;2.57;;;0.30;99.90;;;;;;4790611;29;20447;-73
2023/03/08 02:24:22;;;;;;;4.67;2.77;;;0.20;99.90;;;;;;4790829;29;20696;-74
2023/03/08 02:26:51;;;;;;;6.63;2.80;;;0.20;99.90;;;;;;4791083;29;20237;-74
2023/03/08 02:29:18;;;;;;;7.50;2.60;;;0.30;99.90;;;;;;4790915;29;20203;-76
2023/03/08 02:31:45;;;;;;;4.07;2.30;;;0.30;99.90;;;;;;4790463;29;20196;-76
2023/03/08 02:34:12;;;;;;;7.47;2.60;;;0.20;99.90;;;;;;4790151;29;20207;-77
2023/03/08 02:36:38;;;;;;;5.70;2.00;;;0.30;99.90;;;;;;4790879;29;20203;-77
2023/03/08 02:39:05;;;;;;;3.60;2.17;;;0.30;99.90;;;;;;4807190;29;20209;-74
2023/03/08 02:41:32;;;;;;;3.93;2.20;;;0.30;99.90;;;;;;4806911;29;20224;-74
2023/03/08 02:43:59;;;;;;;5.03;2.13;;;0.20;99.90;;;;;;4791109;29;20540;-73
2023/03/08 02:46:26;;;;;;;5.03;2.20;;;0.30;99.90;;;;;;4806667;29;20208;-72
2023/03/08 02:48:53;;;;;;;4.23;2.30;;;0.20;99.90;;;;;;4790500;29;20202;-74
2023/03/08 02:51:20;;;;;;;3.97;2.07;;;0.20;99.90;;;;;;4792419;29;20199;-75
2023/03/08 02:53:47;;;;;;;4.53;1.80;;;0.20;99.90;;;;;;4774526;30;20218;-76
2023/03/08 02:56:13;;;;;;;6.17;1.87;;;0.20;99.90;;;;;;4772258;30;20238;-74
2023/03/08 02:58:40;;;;;;;4.67;2.13;;;0.20;99.90;;;;;;4774818;29;20264;-75
2023/03/08 03:01:12;;;;;;;7.93;2.20;;;0.20;99.90;;;;;;4790497;29;20223;-74
2023/03/08 03:03:42;;;;;;;3.63;1.90;;;0.20;99.90;;;;;;4790135;29;20244;-75
2023/03/08 03:06:17;;;;;;;2.93;1.67;;;0.20;99.90;;;;;;4774866;30;20230;-75
2023/03/08 03:08:45;;;;;;;6.13;1.70;;;0.20;99.90;;;;;;4772133;30;20207;-75
2023/03/08 03:11:13;;;;;;;3.43;1.70;;;0.30;99.90;;;;;;4772291;30;20223;-76
2023/03/08 03:13:40;;;;;;;6.57;1.77;;;0.30;99.90;;;;;;4772464;30;20207;-74
2023/03/08 03:16:09;;;;;;;4.77;1.80;;;0.30;99.90;;;;;;4772048;30;20264;-76
2023/03/08 03:18:36;;;;;;;4.00;1.70;;;0.20;99.90;;;;;;4788461;30;20719;-75
2023/03/08 03:21:08;;;;;;;4.67;1.77;;;0.30;99.90;;;;;;4771888;30;20231;-75
2023/03/08 03:23:35;;;;;;;3.70;1.70;;;0.30;99.90;;;;;;4772406;30;20210;-76
2023/03/08 03:26:06;;;;;;;3.93;1.90;;;0.30;99.90;;;;;;4782033;29;20232;-74
2023/03/08 03:28:33;;;;;;;5.20;2.00;;;0.30;99.90;;;;;;4771903;30;20212;-75
2023/03/08 03:31:00;;;;;;;5.63;1.80;;;0.30;99.90;;;;;;4771934;30;20219;-74
2023/03/08 03:33:27;;;;;;;5.07;1.70;;;0.30;99.90;;;;;;4771626;30;20212;-74
2023/03/08 03:35:54;;;;;;;3.83;2.10;;;0.30;99.90;;;;;;4771712;30;20204;-74
2023/03/08 03:38:22;;;;;;;4.47;2.10;;;0.40;99.90;;;;;;4772302;30;20228;-76
2023/03/08 03:40:49;;;;;;;4.27;2.10;;;0.30;99.90;;;;;;4771711;30;20215;-74
2023/03/08 03:43:16;;;;;;;5.20;2.07;;;0.40;99.90;;;;;;4787393;29;20214;-74
2023/03/08 03:45:43;;;;;;;4.37;2.00;;;0.40;99.90;;;;;;4787850;30;20307;-76
2023/03/08 03:48:10;;;;;;;3.17;2.17;;;0.40;99.90;;;;;;4787646;30;20665;-76
2023/03/08 03:50:36;;;;;;;4.70;2.80;;;0.30;99.90;;;;;;4771425;30;20211;-76
2023/03/08 03:53:03;;;;;;;6.50;3.10;;;0.40;99.90;;;;;;4771755;30;20540;-76
2023/03/08 03:55:30;;;;;;;7.30;2.90;;;0.40;99.90;;;;;;4787177;30;20236;-76
2023/03/08 03:57:57;;;;;;;8.97;3.30;;;0.40;99.90;;;;;;4771627;30;20517;-75
2023/03/08 04:00:24;;;;;;;4.30;3.03;;;0.40;99.90;;;;;;4771224;30;20239;-75
2023/03/08 04:02:51;;;;;;;8.03;4.13;;;0.50;99.90;;;;;;4771541;30;20587;-74
2023/03/08 04:05:18;;;;;;;6.93;3.90;;;0.50;99.90;;;;;;4771020;30;20265;-75
2023/03/08 04:07:45;;;;;;;8.63;4.07;;;0.50;99.90;;;;;;4771528;30;20208;-75
2023/03/08 04:10:11;;;;;;;8.87;4.70;;;0.40;99.90;;;;;;4771231;30;20305;-74
2023/03/08 04:12:38;;;;;;;9.43;4.93;;;0.50;99.90;;;;;;4787443;30;20203;-75
2023/03/08 04:15:06;;;;;;;9.53;4.70;;;0.50;99.90;;;;;;4787435;30;20197;-75
2023/03/08 04:17:33;;;;;;;9.87;5.00;;;0.50;99.90;;;;;;4771256;30;20210;-74
2023/03/08 04:20:00;;;;;;;10.00;5.33;;;0.50;99.90;;;;;;4771092;30;20221;-74
2023/03/08 04:22:27;;;;;;;11.17;5.57;;;0.50;99.90;;;;;;4784613;29;20279;-74
2023/03/08 04:24:53;;;;;;;11.20;5.60;;;0.50;99.90;;;;;;4773909;29;20444;-73
2023/03/08 04:27:20;;;;;;;10.97;6.17;;;0.50;99.90;;;;;;4788882;29;20718;-73
2023/03/08 04:29:47;;;;;;;11.57;6.10;;;0.50;99.90;;;;;;4788843;29;20183;-74
2023/03/08 04:32:14;;;;;;;10.37;5.83;;;0.50;99.90;;;;;;4789046;29;20255;-75
2023/03/08 04:34:41;;;;;;;10.83;6.43;;;0.50;99.90;;;;;;4788625;29;20200;-75
2023/03/08 04:37:10;;;;;;;12.87;6.70;;;0.50;99.90;;;;;;4789103;29;20207;-75
2023/03/08 04:39:37;;;;;;;13.10;6.30;;;0.60;99.90;;;;;;4788859;29;20206;-75
2023/03/08 04:42:05;;;;;;;12.97;6.77;;;0.60;99.90;;;;;;4805074;29;20681;-75
2023/03/08 04:44:32;;;;;;;12.93;7.10;;;0.60;99.90;;;;;;4788963;29;20198;-78
2023/03/08 04:46:59;;;;;;;17.83;8.10;;;0.50;99.90;;;;;;4804844;29;20595;-75
2023/03/08 04:49:26;;;;;;;16.70;7.60;;;0.50;99.90;;;;;;4804823;29;20198;-74
2023/03/08 04:51:53;;;;;;;15.83;7.70;;;0.50;99.90;;;;;;4788937;29;20654;-75
2023/03/08 04:54:20;;;;;;;18.53;7.43;;;0.50;99.90;;;;;;4804887;29;20199;-75
2023/03/08 04:56:47;;;;;;;16.37;7.90;;;0.50;99.90;;;;;;4790891;29;20242;-74
2023/03/08 04:59:13;;;;;;;19.77;8.47;;;0.50;99.90;;;;;;4792541;29;20318;-74
2023/03/08 05:01:41;;;;;;;16.03;8.47;;;0.50;99.90;;;;;;4808781;29;20571;-76
2023/03/08 05:04:10;;;;;;;16.73;8.50;;;0.50;99.90;;;;;;4792469;29;20640;-77
2023/03/08 05:06:37;;;;;;;16.07;8.23;;;0.50;99.90;;;;;;4808224;29;20218;-76
2023/03/08 05:09:04;;;;;;;15.00;8.27;;;0.40;99.90;;;;;;4792254;29;20211;-76
2023/03/08 05:11:31;;;;;;;17.17;8.23;;;0.50;99.90;;;;;;4792301;29;20219;-77
2023/03/08 05:13:58;;;;;;;15.23;8.10;;;0.40;99.90;;;;;;4792629;29;20230;-76
2023/03/08 05:16:26;;;;;;;18.80;8.27;;;0.40;99.90;;;;;;4808506;29;20199;-75
2023/03/08 05:18:53;;;;;;;18.13;8.37;;;0.50;99.90;;;;;;4792011;29;20711;-75
2023/03/08 05:21:22;;;;;;;14.83;7.77;;;0.50;99.90;;;;;;4792024;29;20219;-76
2023/03/08 05:23:49;;;;;;;16.73;7.97;;;0.50;99.90;;;;;;4808409;29;20618;-74
2023/03/08 05:26:16;;;;;;;15.60;8.57;;;0.50;99.90;;;;;;4807977;29;20226;-76
2023/03/08 05:28:43;;;;;;;15.57;8.13;;;0.50;99.90;;;;;;4791732;29;20210;-74
2023/03/08 05:31:16;;;;;;;15.10;7.97;;;0.50;99.90;;;;;;4792188;29;20222;-76
2023/03/08 05:33:45;;;;;;;15.23;8.43;;;0.60;99.90;;;;;;4791889;29;20207;-75
2023/03/08 05:36:13;;;;;;;15.80;8.77;;;0.60;99.90;;;;;;4791508;29;20208;-76
2023/03/08 05:38:40;;;;;;;18.90;9.20;;;0.60;99.90;;;;;;4791776;29;20243;-76
2023/03/08 05:41:11;;;;;;;15.93;8.70;;;0.60;99.90;;;;;;4791414;29;20235;-73
2023/03/08 05:43:38;;;;;;;18.07;9.20;;;0.60;99.90;;;;;;4791833;29;20654;-74
2023/03/08 05:46:09;;;;;;;16.77;9.20;;;0.60;99.90;;;;;;4807751;29;20216;-75
2023/03/08 05:48:36;;;;;;;16.13;9.10;;;0.60;99.90;;;;;;4807963;29;20275;-75
2023/03/08 05:51:08;;;;;;;16.27;8.83;;;0.50;99.90;;;;;;4791936;29;20558;-75
2023/03/08 05:53:35;;;;;;;16.63;9.40;;;0.60;99.90;;;;;;4803653;29;20215;-75
2023/03/08 05:56:20;;;;;;;14.80;8.50;;;0.60;99.90;;;;;;4789992;30;20235;-75
2023/03/08 05:58:47;;;;;;;13.57;8.33;;;0.60;99.90;;;;;;4773594;30;20205;-76
2023/03/08 06:01:15;;;;;;;17.93;9.17;;;0.50;99.90;;;;;;4780907;29;20223;-74
2023/03/08 06:03:47;;;;;;;14.27;8.43;;;0.50;99.90;;;;;;4791355;29;20210;-74
2023/03/08 06:06:14;;;;;;;16.60;8.73;;;0.60;99.90;;;;;;4790560;29;20207;-73
2023/03/08 06:08:41;;;;;;;15.23;8.67;;;0.60;99.90;;;;;;4791382;29;20306;-73
2023/03/08 06:11:09;;;;;;;16.83;8.67;;;0.60;99.90;;;;;;4791174;29;20302;-73
2023/03/08 06:13:36;;;;;;;17.23;9.03;;;0.60;99.90;;;;;;4800108;29;20569;-73
2023/03/08 06:16:04;;;;;;;14.43;9.00;;;0.50;99.90;;;;;;4782073;29;20209;-77
2023/03/08 06:18:31;;;;;;;15.90;8.83;;;0.50;99.90;;;;;;4794630;29;20226;-77
2023/03/08 06:21:04;;;;;;;15.57;8.67;;;0.50;99.90;;;;;;4790189;29;20229;-76
2023/03/08 06:23:32;;;;;;;16.60;9.30;;;0.40;99.90;;;;;;4776645;30;20218;-76
2023/03/08 06:26:00;;;;;;;14.97;8.47;;;0.40;99.90;;;;;;4773101;29;20251;-75
2023/03/08 06:28:27;;;;;;;14.90;8.57;;;0.40;99.90;;;;;;4802876;29;20588;-76
2023/03/08 06:30:55;;;;;;;14.90;8.67;;;0.40;99.90;;;;;;4790993;29;20202;-81
2023/03/08 06:33:28;;;;;;;14.27;8.90;;;0.30;99.90;;;;;;4792119;29;20293;-82
2023/03/08 06:35:59;;;;;;;19.17;8.53;;;0.40;99.90;;;;;;4796189;29;20207;-78
2023/03/08 06:38:28;;;;;;;15.00;7.90;;;0.40;99.90;;;;;;4807492;29;20208;-81
2023/03/08 06:40:57;;;;;;;14.93;8.13;;;0.40;99.90;;;;;;4781144;30;20247;-75
2023/03/08 06:43:25;;;;;;;14.70;7.70;;;0.40;99.90;;;;;;4778739;29;20198;-76
2023/03/08 06:45:52;;;;;;;13.27;7.37;;;0.50;99.90;;;;;;4795347;29;20204;-73
2023/03/08 06:48:26;;;;;;;13.57;7.83;;;0.50;99.90;;;;;;4756885;29;20200;-78
2023/03/08 06:50:54;;;;;;;11.77;7.10;;;0.50;99.90;;;;;;4788406;29;20226;-80
2023/03/08 06:53:22;;;;;;;12.00;7.00;;;0.60;99.90;;;;;;4781634;29;20204;-76
2023/03/08 06:55:49;;;;;;;12.33;6.83;;;0.60;99.90;;;;;;4772832;29;20246;-73
2023/03/08 06:58:29;;;;;;;13.70;6.87;;;0.70;99.90;;;;;;4776132;29;20201;-79
2023/03/08 07:00:58;;;;;;;13.20;6.93;;;0.60;99.90;;;;;;4794014;29;20220;-79
2023/03/08 07:03:26;;;;;;;10.20;6.70;;;0.70;99.90;;;;;;4780163;29;20230;-78
2023/03/08 07:05:59;;;;;;;13.40;6.93;;;0.80;99.90;;;;;;4796176;29;20200;-78
2023/03/08 07:15:29;;;;;;;13.50;6.87;;;0.90;99.90;;;;;;5021762;24;20239;-79
2023/03/08 07:17:57;;;;;;;11.70;6.50;;;0.90;99.90;;;;;;4772869;29;20261;-75
2023/03/08 07:20:25;;;;;;;14.23;8.10;;;0.90;99.90;;;;;;4787822;30;20451;-76
2023/03/08 07:22:53;;;;;;;11.20;6.13;;;0.90;99.90;;;;;;4772661;30;20479;-73
2023/03/08 07:25:20;;;;;;;12.23;6.53;;;1.00;99.90;;;;;;4772328;30;20200;-75
2023/03/08 07:27:47;;;;;;;10.77;5.77;;;1.00;99.90;;;;;;4789757;29;20220;-75
2023/03/08 07:30:15;;;;;;;11.00;5.87;;;1.00;99.90;;;;;;4787697;29;20204;-76
2023/03/08 07:32:42;;;;;;;11.07;5.93;;;1.00;99.90;;;;;;4800916;29;20204;-77
2023/03/08 07:35:12;;;;;;;12.23;6.30;;;1.00;99.90;;;;;;4787495;24;20263;-77
2023/03/08 07:37:42;;;;;;;10.97;5.37;;;1.10;99.90;;;;;;4786651;30;20212;-76
2023/03/08 07:40:11;;;;;;;12.10;5.80;;;1.10;99.90;;;;;;4788290;30;20192;-74
2023/03/08 07:42:38;;;;;;;12.53;5.67;;;1.20;99.90;;;;;;4785327;30;20232;-73
2023/03/08 07:45:05;;;;;;;9.80;5.73;;;1.20;99.90;;;;;;4785200;30;20224;-74
2023/03/08 07:47:32;;;;;;;12.27;6.13;;;1.20;99.90;;;;;;4786621;30;20211;-74
2023/03/08 07:49:59;;;;;;;10.07;5.80;;;1.20;99.90;;;;;;4784456;30;20207;-74
2023/03/08 07:52:27;;;;;;;10.77;5.93;;;1.20;99.90;;;;;;4778104;30;20301;-73
2023/03/08 07:54:55;;;;;;;11.60;5.17;;;1.30;99.90;;;;;;4769035;30;20202;-76
2023/03/08 07:57:22;;;;;;;10.03;5.27;;;1.30;99.90;;;;;;4784013;30;20208;-78
2023/03/08 07:59:50;;;;;;;11.33;5.63;;;1.30;99.90;;;;;;4769655;30;20204;-80
2023/03/08 08:02:19;;;;;;;9.70;5.60;;;1.50;99.90;;;;;;4786551;30;20239;-80
2023/03/08 08:04:46;;;;;;;10.90;5.80;;;1.40;99.90;;;;;;4785040;30;20208;-78
2023/03/08 08:07:14;;;;;;;8.87;5.20;;;1.40;99.90;;;;;;4785484;30;20677;-77
2023/03/08 08:09:42;;;;;;;8.30;4.77;;;1.40;99.90;;;;;;4775180;30;20675;-77
2023/03/08 08:12:09;;;;;;;10.43;5.13;;;1.50;99.90;;;;;;4786246;30;20303;-75
2023/03/08 08:14:36;;;;;;;9.97;5.40;;;1.70;99.90;;;;;;4785909;30;20256;-74
2023/03/08 08:17:03;;;;;;;9.73;4.63;;;1.70;99.90;;;;;;4771104;30;20664;-76
2023/03/08 08:19:30;;;;;;;9.80;5.03;;;1.70;99.90;;;;;;4786219;30;20212;-74
2023/03/08 08:21:59;;;;;;;11.50;5.10;;;1.80;99.90;;;;;;4785747;30;20328;-76
2023/03/08 08:24:26;;;;;;;9.47;5.33;;;1.90;99.90;;;;;;4790011;29;20192;-76
2023/03/08 08:26:53;;;;;;;10.33;5.47;;;1.80;99.90;;;;;;4777172;30;20268;-78
2023/03/08 08:29:20;;;;;;;10.50;5.20;;;2.00;99.90;;;;;;4768290;30;20232;-76
2023/03/08 08:31:47;;;;;;;7.17;4.60;;;2.30;99.90;;;;;;4776811;30;20235;-74
2023/03/08 08:34:14;;;;;;;9.27;4.33;;;2.60;99.90;;;;;;4787735;29;20200;-74
2023/03/08 08:36:42;;;;;;;10.00;4.83;;;2.80;99.90;;;;;;4788362;29;20212;-75
2023/03/08 08:39:09;;;;;;;7.97;4.60;;;3.40;99.90;;;;;;4773200;30;20208;-73
2023/03/08 08:41:35;;;;;;;8.50;4.47;;;3.30;99.90;;;;;;4791703;29;20227;-74
2023/03/08 08:44:03;;;;;;;11.13;4.87;;;3.50;99.90;;;;;;4784663;29;20232;-73
2023/03/08 08:46:32;;;;;;;9.60;4.80;;;3.40;99.90;;;;;;4785464;29;20206;-75
2023/03/08 08:49:04;;;;;;;11.13;4.63;;;3.90;99.90;;;;;;4787719;29;20291;-75
2023/03/08 08:51:35;;;;;;;7.80;4.13;;;3.80;99.90;;;;;;4784823;29;20288;-76
2023/03/08 08:54:02;;;;;;;7.13;4.37;;;3.90;99.90;;;;;;4771600;29;20213;-75
2023/03/08 08:56:29;;;;;;;9.10;4.23;;;4.20;99.90;;;;;;4782488;29;20201;-75
2023/03/08 08:58:59;;;;;;;9.57;4.47;;;4.10;99.90;;;;;;4781027;29;20208;-75
2023/03/08 09:01:28;;;;;;;8.10;4.20;;;4.20;99.90;;;;;;4796803;29;20222;-75
2023/03/08 09:03:55;;;;;;;7.47;4.20;;;3.90;99.90;;;;;;4802051;29;20231;-74
2023/03/08 09:06:24;;;;;;;5.30;3.57;;;4.00;99.90;;;;;;4802002;29;20628;-76
2023/03/08 09:08:56;;;;;;;5.20;3.47;;;3.90;99.90;;;;;;4800591;29;20201;-76
2023/03/08 09:11:26;;;;;;;6.33;3.90;;;3.90;99.90;;;;;;4784355;29;20282;-75
2023/03/08 09:13:53;;;;;;;6.50;3.57;;;3.80;99.90;;;;;;4800492;29;20293;-76
2023/03/08 09:16:28;;;;;;;8.37;3.47;;;3.50;99.90;;;;;;4802528;29;20280;-76
2023/03/08 09:18:57;;;;;;;7.13;3.80;;;3.10;99.90;;;;;;4795205;29;20211;-75
2023/03/08 09:21:25;;;;;;;5.80;3.63;;;3.30;99.90;;;;;;4788359;29;20217;-75
2023/03/08 09:23:53;;;;;;;6.23;3.90;;;3.40;99.90;;;;;;4799505;29;20273;-74
2023/03/08 09:26:20;;;;;;;6.60;3.40;;;3.20;99.90;;;;;;4779141;29;20782;-73
2023/03/08 09:28:47;;;;;;;6.00;3.27;;;3.10;99.90;;;;;;4802428;29;20201;-74
2023/03/08 09:31:16;;;;;;;8.33;4.23;;;3.00;99.90;;;;;;4771033;29;20243;-73
2023/03/08 09:33:50;;;;;;;8.80;4.03;;;3.00;99.90;;;;;;4786531;29;20242;-72
2023/03/08 09:36:18;;;;;;;7.07;4.13;;;2.80;99.90;;;;;;4800942;29;21028;-76
2023/03/08 09:38:49;;;;;;;6.40;3.60;;;2.60;99.90;;;;;;4799443;29;20637;-74
2023/03/08 09:41:22;;;;;;;7.30;3.50;;;2.60;99.90;;;;;;4802124;29;20265;-75
2023/03/08 09:44:10;;;;;;;5.57;3.00;;;2.70;99.90;;;;;;4798634;29;20243;-75
2023/03/08 09:46:49;;;;;;;5.63;3.17;;;2.70;99.90;;;;;;4789838;30;20201;-74
2023/03/08 09:49:30;;;;;;;8.20;3.43;;;2.80;99.90;;;;;;4804607;29;20200;-75
2023/03/08 09:52:25;;;;;;;6.87;3.27;;;2.70;99.90;;;;;;4793656;29;20274;-75
2023/03/08 09:54:53;;;;;;;7.33;3.30;;;2.60;99.90;;;;;;4727034;30;20218;-74
2023/03/08 09:57:25;;;;;;;7.17;3.50;;;2.70;99.90;;;;;;4734236;30;20217;-74
2023/03/08 09:59:56;;;;;;;5.80;3.93;;;3.00;99.90;;;;;;4733500;30;20210;-73
2023/03/08 10:02:38;;;;;;;7.53;4.00;;;3.40;99.90;;;;;;4731514;30;20631;-72
2023/03/08 10:05:35;;;;;;;8.93;4.00;;;4.10;99.90;;;;;;4731199;30;20226;-74
2023/03/08 10:08:07;;;;;;;7.93;4.00;;;4.70;99.90;;;;;;4740882;30;20736;-74
2023/03/08 10:10:59;;;;;;;7.10;3.77;;;5.00;99.90;;;;;;4732962;30;20628;-74
2023/03/08 10:13:37;;;;;;;6.20;3.40;;;5.30;99.90;;;;;;4732402;30;20214;-74
2023/03/08 10:16:11;;;;;;;6.47;3.23;;;5.20;99.90;;;;;;4716066;30;20213;-74
2023/03/08 10:18:57;;;;;;;6.40;3.40;;;5.10;99.90;;;;;;4727611;30;20321;-75
2023/03/08 10:21:26;;;;;;;5.47;3.27;;;5.00;99.90;;;;;;4701757;30;20677;-75
2023/03/08 10:24:25;;;;;;;8.87;3.90;;;4.70;99.90;;;;;;4716621;30;20240;-75
2023/03/08 10:27:18;;;;;;;6.93;3.53;;;4.40;99.90;;;;;;4698879;30;20322;-77
2023/03/08 10:29:48;;;;;;;6.17;3.80;;;4.30;99.90;;;;;;4698910;30;20232;-76
2023/03/08 10:32:16;;;;;;;8.87;3.53;;;4.00;99.90;;;;;;4721889;30;20208;-74
2023/03/08 10:34:44;;;;;;;8.37;3.70;;;3.90;99.90;;;;;;4723124;30;20263;-74
2023/03/08 10:37:11;;;;;;;6.33;3.43;;;4.30;99.90;;;;;;4727000;30;20307;-71
2023/03/08 10:39:51;;;;;;;7.07;3.80;;;4.60;99.90;;;;;;4734459;30;20215;-74
2023/03/08 10:42:27;;;;;;;7.00;3.30;;;4.90;99.90;;;;;;4739406;30;20332;-78
2023/03/08 10:45:03;;;;;;;10.37;3.47;;;5.30;99.90;;;;;;4736545;30;20705;-71
2023/03/08 10:47:38;;;;;;;8.47;3.63;;;5.40;99.90;;;;;;4733560;30;20271;-73
2023/03/08 10:50:16;;;;;;;5.73;3.30;;;5.30;99.90;;;;;;4725773;30;20203;-79
2023/03/08 10:52:45;;;;;;;6.90;3.50;;;5.20;99.90;;;;;;4749296;30;20214;-73
2023/03/08 10:55:15;;;;;;;7.57;3.80;;;4.90;99.90;;;;;;4744670;30;20201;-77
2023/03/08 10:57:50;;;;;;;7.87;3.80;;;4.70;99.90;;;;;;4733578;30;20208;-76
2023/03/08 11:00:20;;;;;;;9.63;4.10;;;4.70;99.90;;;;;;4735335;30;21002;-75
2023/03/08 11:02:47;;;;;;;9.40;3.90;;;4.20;99.90;;;;;;4732702;29;20228;-74
2023/03/08 11:05:25;;;;;;;7.13;3.73;;;4.20;99.90;;;;;;4785479;29;20642;-77
2023/03/08 11:07:55;;;;;;;8.77;3.60;;;4.10;99.90;;;;;;4774104;30;20206;-77
2023/03/08 11:10:24;;;;;;;7.97;3.57;;;3.90;99.90;;;;;;4786416;29;20201;-75
2023/03/08 11:13:21;;;;;;;6.97;4.00;;;3.90;99.90;;;;;;4785431;29;20207;-77
2023/03/08 11:16:20;;;;;;;6.30;3.77;;;3.90;99.90;;;;;;4779837;29;20214;-74
2023/03/08 11:19:05;;;;;;;7.17;3.63;;;3.80;99.90;;;;;;4718427;30;20668;-77
2023/03/08 11:21:40;;;;;;;9.50;3.70;;;3.90;99.90;;;;;;4719698;30;20217;-78
2023/03/08 11:24:26;;;;;;;5.57;3.70;;;4.20;99.90;;;;;;4732781;30;20326;-74
2023/03/08 11:27:22;;;;;;;8.47;4.13;;;4.50;99.90;;;;;;4728576;30;20300;-81
2023/03/08 11:30:06;;;;;;;7.77;3.93;;;4.40;99.90;;;;;;4711483;30;20222;-81
2023/03/08 11:32:51;;;;;;;6.23;3.87;;;4.50;99.90;;;;;;4732978;30;20663;-80
2023/03/08 11:35:31;;;;;;;8.47;4.27;;;4.60;99.90;;;;;;4724387;30;20300;-82
2023/03/08 11:38:22;;;;;;;10.80;4.17;;;5.00;99.90;;;;;;4722413;30;20285;-81
2023/03/08 11:41:19;;;;;;;7.27;3.80;;;5.40;99.90;;;;;;4714206;30;20196;-79
2023/03/08 11:43:58;;;;;;;7.53;4.17;;;5.70;99.90;;;;;;4723026;30;20244;-82
2023/03/08 11:47:02;;;;;;;8.43;4.27;;;5.60;99.90;;;;;;4715260;30;20237;-80
2023/03/08 11:49:36;;;;;;;8.90;4.27;;;5.50;99.90;;;;;;4727832;30;20238;-79
2023/03/08 11:52:27;;;;;;;8.33;4.37;;;5.50;99.90;;;;;;4713634;30;20223;-82
2023/03/08 11:55:26;;;;;;;7.90;4.10;;;5.50;99.90;;;;;;4725617;30;20224;-79
2023/03/08 11:57:59;;;;;;;7.70;4.00;;;5.30;99.90;;;;;;4719105;30;20212;-83
2023/03/08 12:00:39;;;;;;;6.40;3.80;;;5.30;99.90;;;;;;4732958;30;20234;-81
2023/03/08 12:03:15;;;;;;;8.97;4.00;;;5.40;99.90;;;;;;4718987;30;20759;-77
2023/03/08 12:05:52;;;;;;;8.33;4.27;;;5.80;99.90;;;;;;4725897;30;20237;-82
2023/03/08 12:08:26;;;;;;;7.70;3.73;;;5.40;99.90;;;;;;4730519;30;20715;-75
2023/03/08 12:11:00;;;;;;;8.17;3.43;;;5.20;99.90;;;;;;4728013;30;20690;-72
2023/03/08 12:13:35;;;;;;;5.17;3.27;;;5.50;99.90;;;;;;4716021;30;20224;-80
2023/03/08 12:16:22;;;;;;;6.27;3.43;;;6.30;99.90;;;;;;4731108;30;20663;-74
2023/03/08 12:19:00;;;;;;;5.40;3.13;;;7.50;99.90;;;;;;4720044;30;20222;-78
2023/03/08 12:21:54;;;;;;;6.33;3.47;;;8.80;99.90;;;;;;4738495;30;20258;-81
2023/03/08 12:24:45;;;;;;;4.23;2.60;;;10.80;99.90;;;;;;4733419;30;20238;-78
2023/03/08 12:27:41;;;;;;;5.53;2.53;;;11.60;92.80;;;;;;4719172;30;20225;-73
2023/03/08 12:30:38;;;;;;;4.93;2.43;;;11.10;89.30;;;;;;4738719;30;20213;-72
2023/03/08 12:33:11;;;;;;;4.00;2.70;;;10.20;86.30;;;;;;4754784;29;20247;-71
2023/03/08 12:35:51;;;;;;;4.60;2.70;;;8.50;92.50;;;;;;4804349;29;20714;-71
2023/03/08 12:38:18;;;;;;;5.50;2.60;;;7.80;95.10;;;;;;4787477;29;20237;-81
2023/03/08 12:40:47;;;;;;;6.30;3.03;;;6.90;96.70;;;;;;4803054;29;20276;-74
2023/03/08 12:43:20;;;;;;;5.33;2.73;;;6.40;99.90;;;;;;4799009;29;20222;-72
2023/03/08 12:45:59;;;;;;;6.47;2.53;;;6.30;99.90;;;;;;4786179;29;20824;-71
2023/03/08 12:48:36;;;;;;;4.50;2.90;;;6.10;99.90;;;;;;4798199;29;20195;-71
2023/03/08 12:51:17;;;;;;;5.10;2.80;;;5.90;99.90;;;;;;4790937;29;20222;-76
2023/03/08 12:53:51;;;;;;;3.47;2.40;;;5.40;99.90;;;;;;4805082;29;20618;-74
2023/03/08 12:56:22;;;;;;;5.50;2.80;;;5.70;99.90;;;;;;4796592;29;20288;-86
2023/03/08 12:58:56;;;;;;;5.80;3.10;;;6.90;99.90;;;;;;4803520;29;20207;-84
2023/03/08 13:01:34;;;;;;;4.47;2.50;;;8.40;99.90;;;;;;4787397;29;20231;-78
2023/03/08 13:04:25;;;;;;;4.20;2.80;;;9.60;97.50;;;;;;4800162;29;20326;-80
2023/03/08 13:07:17;;;;;;;4.63;3.10;;;10.70;95.20;;;;;;4784082;29;20286;-84
2023/03/08 13:10:02;;;;;;;9.03;3.07;;;10.10;92.20;;;;;;4785262;29;20218;-83
2023/03/08 13:12:40;;;;;;;5.57;2.90;;;10.80;92.40;;;;;;4789660;29;20218;-74
2023/03/08 13:15:18;;;;;;;5.83;2.93;;;11.40;90.10;;;;;;4805865;29;20203;-75
2023/03/08 13:18:06;;;;;;;6.73;3.40;;;10.90;82.60;;;;;;4783281;29;20654;-74
2023/03/08 13:20:39;;;;;;;4.93;3.10;;;10.50;83.50;;;;;;4809111;29;20210;-76
2023/03/08 13:23:21;;;;;;;5.53;3.60;;;10.40;84.00;;;;;;4808718;29;20707;-76